Language selection

Weather shortcuts

Lake Winnipegosis: Past 24 Hour Conditions

 

Lake Winnipeg North - 45144

11:00 AM CDT 12 July 2024Buoy position: 53.14N 98.18W
Disclaimer

This table is a summary of hourly weather conditions for the past 24 hours.
Please note that these observations might not always be representative of weather conditions over their associated marine area.

Date / Time
(CDT)
Wind(knots) Wave height(m) Wave period(s) Pressure(kPa) Air tempC) Water tempC)
12 July 2024
11:00 ENE 15 gusts 17 0.73 4.3 101.1 17 17
10:00 NNE 13 gusts 16 0.76 4.1 101.3 17 17
9:00 NE 15 gusts 18 0.90 3.9 101.0 17 17
8:00 E 19 gusts 24 0.85 4.0 100.9 17 18
7:00 E 16 gusts 18 0.78 4.2 101.0 17 18
6:00 E 14 gusts 17 0.78 4.3 101.1 17 18
5:00 ENE 14 gusts 17 0.92 4.3 101.0 18 18
4:00 ENE 16 gusts 19 1.05 4.0 101.0 18 19
3:00 ENE 16 gusts 19 0.92 3.8 101.0 19 19
2:00 ENE 17 gusts 20 0.86 3.9 100.9 20 19
1:00 NE 16 gusts 20 0.71 3.6 100.9 20 20
0:00 NE 15 gusts 17 0.55 2.8 100.9 21 20
11 July 2024
23:00 NE 11 gusts 13 0.31 4.1 100.8 22 21
22:00 NE 8 gusts 11 0.30 4.0 100.7 22 21
21:00 SE 3 gusts 4 0.32 4.3 100.6 23 21
20:00 SE 3 gusts 4 0.38 4.1 100.6 23 21
19:00 SSE 5 gusts 5 0.42 4.3 100.6 22 21
18:00 SSE 4 gusts 5 0.44 4.3 100.6 22 21
17:00 SE 4 gusts 5 0.47 4.2 100.6 22 20
16:00 SSE 8 gusts 8 0.52 4.1 100.5 21 20
15:00 SE 7 gusts 8 0.53 4.3 100.5 21 20
14:00 SSE 5 gusts 6 0.50 4.1 100.6 21 20
13:00 SE 10 gusts 11 0.49 4.3 100.6 20 19
12:00 SE 9 gusts 10 0.47 4.0 100.6 20 19
11:00 SSE 9 gusts 10 0.46 3.8 100.7 20 19

Zoom-in to make a selection

Map of Prairies - Manitoba Lakes marine weather areas Lake Winnipeg South Basin - 45140 Lake Winnipeg North - 45144 Lake Winnipeg Narrows - 45145 Lake Of the Woods - 45148 Carberry Portage Southport Airport Wasagaming Sprague Winnipeg Richardson Int'l Airport Berens River Airport George Island Fisher Branch Gimli Harbour Gimli Grand Rapids Victoria Beach Dauphin Airport McCreary Oak Point Marine Swan River Norway House Airport Kenora Airport Royal Island
Legend:
buoy Buoy
land station Land Station

Prairies - Manitoba Lakes Area

Another Region

Features

New Predicting and Alerting Coastal Flooding Program

Find out about coastal flooding coverage, forecasts and warnings in your region

Date modified: